Latest Weather Observations for Richmond

IDQ60801

Issued at 11:05 am EST Saturday 29 November 2014 (issued every 30 minutes, with the page automatically refreshed every 10 minutes)

About weather observations | Map of weather stations | Latest weather observations for QLD | Other Formats
Station Details ID: 030161 Name: RICHMOND AIRPORT Lat: -20.70 Lon: 143.12 Height: 206.3 m
Data from the previous 72 hours. | See also: Recent months at Richmond
Date/Time
EST
Temp
°C
App
Temp
°C
Dew
Point
Rel
Hum
%
Delta-T
°C
Wind Press
QNH
hPa
Press
MSL
hPa
Rain
since 9 am
mm
Dir
 
Spd
km/h
Gust
km/h
Spd
kts
Gust
kts
29/11:00am 33.3 29.7 10.6 25 13.3 N 20 22 11 12 1011.5 1010.1 0.0
29/10:30am 32.5 30.4 11.1 27 12.6 NNE 13 24 7 13 1011.8 1010.4 0.0
29/10:00am 32.1 28.6 10.2 26 12.7 NNE 19 28 10 15 1012.2 1010.8 0.0
29/09:30am 32.2 28.9 10.8 27 12.5 NE 19 26 10 14 1012.5 1011.1 0.0
29/09:00am 31.3 27.2 10.1 27 12.2 NNE 22 30 12 16 1012.3 1010.9 0.0
29/08:30am 30.6 26.9 10.0 28 11.8 NNE 20 28 11 15 1012.2 1010.8 0.0
29/08:00am 29.4 24.8 9.5 29 11.2 NNE 24 32 13 17 1012.1 1010.7 0.0
29/07:30am 28.8 23.9 10.0 31 10.7 NE 26 33 14 18 1011.8 1010.4 0.0
29/07:00am 28.0 24.8 9.8 32 10.3 NNE 17 20 9 11 1011.7 1010.3 0.0
29/06:30am 26.4 23.9 9.7 35 9.3 NE 13 19 7 10 1011.4 1010.0 0.0
29/06:00am 25.7 23.1 9.5 36 9.0 ENE 13 22 7 12 1011.0 1009.5 0.0
29/05:30am 25.1 22.6 8.1 34 9.2 ENE 11 13 6 7 1010.8 1009.3 0.0
29/05:00am 26.1 23.6 8.1 32 9.8 ENE 11 17 6 9 1010.2 1008.7 0.0
29/04:30am 26.5 23.5 7.5 30 10.2 NE 13 17 7 9 1009.8 1008.3 0.0
29/04:00am 26.7 23.5 6.7 28 10.6 NE 13 15 7 8 1009.5 1008.0 0.0
29/03:30am 27.4 23.8 6.8 27 11.0 N 15 19 8 10 1009.5 1008.0 0.0
29/03:00am 27.5 23.5 6.8 27 11.1 NNE 17 20 9 11 1008.8 1007.4 0.0
29/02:30am 28.1 23.6 6.2 25 11.6 NE 19 26 10 14 1008.3 1006.9 0.0
29/02:00am 28.7 24.1 5.5 23 12.2 NNE 19 28 10 15 1008.3 1006.9 0.0
29/01:30am 29.6 25.3 6.9 24 12.3 NNE 19 28 10 15 1008.0 1006.6 0.0
29/01:00am 30.3 25.8 6.9 23 12.7 NE 20 30 11 16 1008.3 1006.9 0.0
29/12:30am 31.3 26.8 7.1 22 13.3 NE 20 30 11 16 1008.4 1007.0 0.0
29/12:00am 32.0 27.5 6.2 20 14.0 NE 19 30 10 16 1008.6 1007.2 0.0
 
Date/Time
EST
Temp
°C
App
Temp
°C
Dew
Point
Rel
Hum
%
Delta-T
°C
Wind Press
QNH
hPa
Press
MSL
hPa
Rain
since 9 am
mm
Dir
 
Spd
km/h
Gust
km/h
Spd
kts
Gust
kts
28/11:30pm 33.1 29.0 6.4 19 14.6 ENE 17 26 9 14 1008.9 1007.5 0.0
28/11:00pm 32.8 29.1 6.2 19 14.5 ENE 15 20 8 11 1009.2 1007.8 0.0
28/10:30pm 33.3 29.3 6.6 19 14.7 E 17 22 9 12 1009.2 1007.8 0.0
28/10:00pm 33.8 29.5 7.0 19 14.9 E 19 26 10 14 1009.1 1007.7 0.0
28/09:30pm 34.2 29.2 6.5 18 15.2 E 22 28 12 15 1008.9 1007.5 0.0
28/09:00pm 34.6 29.7 6.8 18 15.4 E 22 32 12 17 1008.5 1007.1 0.0
28/08:30pm 34.9 29.5 6.2 17 15.8 E 24 33 13 18 1008.3 1006.9 0.0
28/08:00pm 35.2 29.6 5.6 16 16.2 ESE 24 35 13 19 1007.9 1006.5 0.0
28/07:30pm 35.6 31.2 5.0 15 16.6 ESE 17 22 9 12 1007.5 1006.1 0.0
28/07:00pm 36.2 31.4 5.5 15 16.8 E 20 24 11 13 1007.2 1005.8 0.0
28/06:30pm 36.7 32.2 5.9 15 17.0 E 19 26 10 14 1006.9 1005.5 0.0
28/06:00pm 37.5 32.7 5.5 14 17.7 ESE 20 26 11 14 1006.6 1005.1 0.0
28/05:30pm 38.2 32.9 5.0 13 18.2 ESE 22 30 12 16 1006.5 1005.0 0.0
28/05:00pm 38.1 33.1 3.8 12 18.5 E 19 32 10 17 1006.4 1004.9 0.0
28/04:30pm 38.4 33.1 5.1 13 18.3 ESE 22 30 12 16 1006.4 1004.9 0.0
28/04:00pm 37.9 34.2 4.7 13 18.1 ENE 13 22 7 12 1006.8 1005.4 0.0
28/03:30pm 38.8 34.5 5.4 13 18.5 E 17 32 9 17 1007.0 1005.6 0.0
28/03:00pm 38.3 33.8 7.1 15 17.7 SSE 20 24 11 13 1007.1 1005.7 0.0
28/02:30pm 38.5 34.5 8.2 16 17.5 E 19 30 10 16 1007.6 1006.2 0.0
28/02:00pm 37.4 33.8 8.2 17 16.8 E 17 26 9 14 1008.2 1006.8 0.0
28/01:30pm 38.3 34.6 8.1 16 17.4 E 17 24 9 13 1008.6 1007.2 0.0
28/01:00pm 36.6 32.4 8.4 18 16.2 E 20 35 11 19 1009.1 1007.7 0.0
28/12:30pm 37.1 32.8 8.0 17 16.6 E 20 33 11 18 1009.7 1008.2 0.0
28/12:00pm 36.3 32.8 7.4 17 16.3 E 15 24 8 13 1010.2 1008.7 0.0
28/11:30am 35.7 32.3 9.3 20 15.3 E 17 32 9 17 1010.5 1009.0 0.0
28/11:00am 36.2 33.0 11.1 22 15.0 E 19 28 10 15 1011.0 1009.5 0.0
28/10:30am 35.1 32.1 12.1 25 13.8 E 19 26 10 14 1011.4 1010.0 0.0
28/10:00am 34.0 31.7 12.9 28 12.8 ENE 17 26 9 14 1011.7 1010.3 0.0
28/09:30am 33.2 31.2 13.8 31 11.9 E 17 30 9 16 1012.0 1010.6 0.0
28/09:00am 31.8 29.0 12.6 31 11.5 NNE 19 26 10 14 1012.0 1010.6 0.0
28/08:30am 30.3 27.5 12.7 34 10.5 NNE 19 26 10 14 1011.9 1010.5 0.0
28/08:00am 29.6 26.0 12.9 35 10.0 NNE 24 32 13 17 1011.7 1010.3 0.0
28/07:30am 29.1 26.1 12.5 36 9.8 NNE 20 28 11 15 1011.4 1010.0 0.0
28/07:00am 27.8 25.8 12.6 39 9.0 NNE 15 26 8 14 1011.4 1010.0 0.0
28/06:30am 26.5 24.3 12.2 41 8.3 NNE 15 17 8 9 1011.4 1010.0 0.0
28/06:00am 25.4 23.8 12.9 45 7.3 NNE 13 19 7 10 1011.0 1009.5 0.0
28/05:30am 25.3 24.1 14.1 50 6.7 NE 13 17 7 9 1010.6 1009.1 0.0
28/05:00am 25.3 25.3 15.3 54 6.1 ENE 9 11 5 6 1010.4 1008.9 0.0
28/04:30am 25.2 25.1 14.9 52 6.2 ENE 9 13 5 7 1010.1 1008.6 0.0
28/04:00am 26.3 24.7 15.0 49 6.9 E 17 20 9 11 1009.8 1008.3 0.0
28/03:30am 26.8 25.4 15.5 50 6.9 E 17 22 9 12 1009.6 1008.1 0.0
28/03:00am 26.9 25.5 15.6 50 7.0 ESE 17 20 9 11 1009.7 1008.2 0.0
28/02:30am 27.2 25.4 15.9 50 7.0 ESE 20 26 11 14 1009.6 1008.1 0.0
28/02:00am 27.3 25.1 16.0 50 7.0 ESE 22 30 12 16 1009.7 1008.2 0.0
28/01:30am 27.4 25.0 16.4 51 6.9 SE 24 30 13 16 1010.1 1008.6 0.0
28/01:00am 27.5 24.4 16.5 51 6.9 SE 28 33 15 18 1010.2 1008.7 0.0
28/12:30am 28.0 25.4 16.0 48 7.5 SE 24 35 13 19 1010.5 1009.0 0.0
28/12:00am 28.3 25.7 15.9 47 7.7 SSE 24 30 13 16 1010.6 1009.1 0.0
 
Date/Time
EST
Temp
°C
App
Temp
°C
Dew
Point
Rel
Hum
%
Delta-T
°C
Wind Press
QNH
hPa
Press
MSL
hPa
Rain
since 9 am
mm
Dir
 
Spd
km/h
Gust
km/h
Spd
kts
Gust
kts
27/11:30pm 28.3 25.3 15.9 47 7.7 SSE 26 33 14 18 1010.7 1009.2 0.0
27/11:00pm 28.9 26.5 15.4 44 8.3 SSE 22 28 12 15 1010.8 1009.3 0.0
27/10:30pm 29.6 25.9 16.1 44 8.4 SSE 30 37 16 20 1010.7 1009.2 0.0
27/10:29pm 29.6 25.6 16.1 44 8.4 SSE 32 37 17 20 1010.7 1009.2 0.0
27/10:00pm 29.9 30.4 15.6 42 8.9 S 7 9 4 5 1010.4 1008.9 0.0
27/09:30pm 30.2 28.7 16.2 42 8.8 S 19 22 10 12 1010.3 1008.8 0.0
27/09:00pm 30.3 28.2 16.3 42 8.8 SSW 22 26 12 14 1010.1 1008.6 0.0
27/08:30pm 30.9 28.8 16.1 41 9.3 S 22 30 12 16 1010.1 1008.6 0.0
27/08:00pm 31.0 27.2 15.8 40 9.5 S 30 39 16 21 1009.5 1008.0 0.0
27/07:30pm 32.3 28.0 14.4 33 11.0 S 30 39 16 21 1008.7 1007.3 0.0
27/07:00pm 33.5 28.9 13.5 29 12.2 S 30 46 16 25 1008.3 1006.9 0.0
27/06:30pm 35.9 33.4 12.2 24 14.3 ESE 17 20 9 11 1007.9 1006.5 0.0
27/06:00pm 36.1 34.0 12.3 24 14.5 E 15 19 8 10 1007.7 1006.3 0.0
27/05:30pm 36.8 33.5 12.9 24 14.6 ESE 22 32 12 17 1007.4 1006.0 0.0
27/05:00pm 36.1 35.5 12.3 24 14.5 SSE 7 13 4 7 1007.1 1005.7 0.0
27/04:30pm 36.7 35.1 12.8 24 14.6 E 13 22 7 12 1007.0 1005.6 0.0
27/04:00pm 36.5 36.0 13.9 26 14.1 E 9 15 5 8 1007.2 1005.8 0.0
27/03:30pm 36.6 35.6 13.4 25 14.3 ENE 11 20 6 11 1007.5 1006.1 0.0
27/03:00pm 36.3 34.8 13.1 25 14.3 N 13 20 7 11 1008.0 1006.6 0.0
27/02:30pm 37.4 36.8 14.6 25 14.3 ENE 11 22 6 12 1008.5 1007.1 0.0
27/02:00pm 37.0 36.9 14.9 27 14.0 ESE 9 15 5 8 1009.0 1007.6 0.0
27/01:30pm 36.0 35.0 14.6 27 13.4 N 13 22 7 12 1009.6 1008.1 0.0
27/01:00pm 35.7 36.0 15.9 30 12.6 NNW 9 19 5 10 1010.1 1008.6 0.0
27/12:30pm 34.4 32.9 15.3 31 12.0 E 17 22 9 12 1010.5 1009.0 0.0
27/12:00pm 34.0 33.1 15.9 33 11.5 ENE 15 24 8 13 1010.9 1009.4 0.0
27/11:30am 33.8 32.8 15.7 33 11.4 NE 15 24 8 13 1011.4 1010.0 0.0
27/11:00am 32.9 32.0 15.8 35 10.8 NE 15 32 8 17 1011.9 1010.5 0.0
27/10:30am 32.7 32.0 16.5 37 10.3 NNE 15 22 8 12 1012.4 1011.0 0.0
27/10:00am 31.0 31.0 16.2 41 9.3 N 11 20 6 11 1012.8 1011.4 0.0
27/09:30am 30.5 31.1 16.9 44 8.6 N 9 17 5 9 1013.1 1011.7 0.0
27/09:00am 30.7 30.0 17.4 45 8.5 NNE 17 22 9 12 1013.1 1011.7 0.0
27/08:30am 31.0 31.8 17.3 43 8.8 NNE 9 19 5 10 1013.3 1011.9 0.0
27/08:00am 30.9 31.1 17.6 45 8.5 NNE 13 20 7 11 1013.2 1011.8 0.0
27/07:30am 29.0 29.5 17.5 49 7.3 NE 11 17 6 9 1013.1 1011.7 0.0
27/07:00am 28.7 30.2 17.6 51 7.1 N 6 7 3 4 1012.8 1011.4 0.0
27/06:30am 28.1 30.4 17.6 53 6.7 N 2 7 1 4 1012.3 1010.9 0.0
27/06:00am 28.0 28.9 17.5 52 6.7 NE 9 13 5 7 1011.3 1009.9 0.0
27/05:30am 28.3 28.8 17.5 52 6.9 NE 11 15 6 8 1011.2 1009.8 0.0
27/05:00am 28.2 28.7 17.4 52 6.9 NE 11 15 6 8 1010.6 1009.1 0.0
27/04:30am 27.8 29.0 17.3 52 6.6 ENE 7 9 4 5 1010.2 1008.7 0.0
27/04:00am 27.7 28.8 17.2 52 6.6 NE 7 9 4 5 1009.6 1008.1 0.0
27/03:30am 28.2 28.5 17.1 51 7.0 NNE 11 15 6 8 1009.0 1007.6 0.0
27/03:00am 28.4 28.7 17.0 50 7.2 NNE 11 15 6 8 1008.9 1007.5 0.0
27/02:30am 28.7 28.6 16.9 48 7.5 NNE 13 17 7 9 1008.7 1007.3 0.0
27/02:00am 29.1 28.5 16.6 46 7.9 NNE 15 19 8 10 1008.6 1007.2 0.0
27/01:30am 29.2 29.3 16.4 46 8.0 NNE 11 15 6 8 1008.6 1007.2 0.0
27/01:00am 29.8 29.0 16.2 43 8.5 NNE 15 19 8 10 1008.9 1007.5 0.0
27/12:30am 30.3 28.8 16.3 42 8.8 NNE 19 24 10 13 1009.2 1007.8 0.0
27/12:00am 30.7 29.4 15.9 40 9.3 NE 17 20 9 11 1009.6 1008.1 0.0
 
Date/Time
EST
Temp
°C
App
Temp
°C
Dew
Point
Rel
Hum
%
Delta-T
°C
Wind Press
QNH
hPa
Press
MSL
hPa
Rain
since 9 am
mm
Dir
 
Spd
km/h
Gust
km/h
Spd
kts
Gust
kts
26/11:30pm 30.9 29.4 15.3 38 9.7 NNE 17 26 9 14 1010.0 1008.5 0.0
26/11:00pm 31.4 29.4 15.4 38 10.0 NNE 20 30 11 16 1010.1 1008.6 0.0
26/10:30pm 31.9 29.9 15.4 37 10.3 NE 20 30 11 16 1010.1 1008.6 0.0
26/10:00pm 32.6 29.9 14.7 34 11.1 NE 22 32 12 17 1010.0 1008.5 0.0
26/09:30pm 32.9 32.1 13.0 30 12.0 ENE 9 13 5 7 1009.6 1008.1 0.0
26/09:00pm 33.3 32.9 12.9 29 12.4 ENE 7 11 4 6 1009.2 1007.8 0.0
26/08:30pm 33.7 31.7 12.7 28 12.7 E 15 19 8 10 1008.9 1007.5 0.0
26/08:00pm 34.5 31.0 12.2 26 13.4 ESE 22 32 12 17 1008.4 1007.0 0.0
26/07:30pm 35.0 33.0 11.4 24 14.1 E 13 17 7 9 1008.0 1006.6 0.0
26/07:00pm 35.6 33.2 11.3 23 14.5 E 15 19 8 10 1007.7 1006.3 0.0
26/06:30pm 35.9 34.5 10.9 22 14.8 ENE 9 15 5 8 1007.5 1006.1 0.0
26/06:00pm 36.9 34.0 11.0 21 15.5 E 17 28 9 15 1007.2 1005.8 0.0
26/05:30pm 37.0 34.5 11.1 21 15.5 ENE 15 20 8 11 1007.1 1005.7 0.0
26/05:00pm 37.1 34.6 11.1 21 15.6 ENE 15 24 8 13 1006.9 1005.5 0.0
26/04:30pm 36.8 35.2 11.6 22 15.2 NE 11 19 6 10 1007.0 1005.6 0.0
26/04:00pm 36.7 35.5 11.5 22 15.2 ESE 9 15 5 8 1007.2 1005.8 0.0
26/03:30pm 37.6 36.9 11.5 21 15.7 NW 6 13 3 7 1007.3 1005.9 0.0
26/03:00pm 37.5 36.1 12.2 22 15.4 S 11 19 6 10 1007.7 1006.3 0.0
26/02:30pm 36.7 36.2 12.2 23 14.9 ESE 6 13 3 7 1008.0 1006.6 0.0
26/02:00pm 36.1 35.1 12.3 24 14.4 ENE 9 24 5 13 1008.4 1007.0 0.0
26/01:30pm 35.8 35.1 12.1 24 14.3 ESE 7 13 4 7 1008.9 1007.5 0.0
26/01:00pm 34.8 33.9 12.5 26 13.5 ENE 9 17 5 9 1009.5 1008.0 0.0
26/12:30pm 34.2 33.3 12.5 27 13.1 SE 9 17 5 9 1010.1 1008.6 0.0
26/12:00pm 35.9 35.3 13.4 26 13.9 NE 9 22 5 12 1010.6 1009.1 0.0
26/11:30am 33.9 32.3 11.7 26 13.2 E 11 20 6 11 1010.9 1009.4 0.0

Other Formats:

Comma delimited format used in spreadsheet applications
http://www.bom.gov.au/fwo/IDQ60801/IDQ60801.94341.axf

JavaScript Object Notation format (JSON) in row-major order
http://www.bom.gov.au/fwo/IDQ60801/IDQ60801.94341.json